Time;durP1;ratioP1;P1;durP2;ratioP2;P2;SDS_P1;SDS_P2;PMS_P1;PMS_P2;Temp;Humidity;BMP_temperature;BMP_pressure;BME280_temperature;BME280_humidity;BME280_pressure;Samples;Min_cycle;Max_cycle;Signal;HPM_P1;HPM_P2
2023/03/30 00:01:21;;;;;;;3.50;1.80;;;;;;;13.09;43.26;100371.97;5001577;28;20525;-75
2023/03/30 00:03:49;;;;;;;3.83;1.88;;;;;;;13.06;43.22;100364.03;5011649;28;20509;-76
2023/03/30 00:06:21;;;;;;;3.15;1.80;;;;;;;13.05;43.22;100360.44;5004602;28;20054;-76
2023/03/30 00:08:52;;;;;;;3.70;2.00;;;;;;;13.04;43.25;100342.22;5003792;28;20058;-75
2023/03/30 00:11:21;;;;;;;3.85;1.90;;;;;;;13.04;43.44;100346.84;5006665;28;20078;-75
2023/03/30 00:13:50;;;;;;;3.42;1.88;;;;;;;13.03;43.00;100346.03;5005104;28;20046;-75
2023/03/30 00:16:19;;;;;;;4.53;2.13;;;;;;;13.02;43.36;100347.03;5014851;28;20049;-75
2023/03/30 00:18:49;;;;;;;4.50;2.20;;;;;;;13.02;43.06;100338.81;5017777;28;20060;-76
2023/03/30 00:21:19;;;;;;;4.38;2.20;;;;;;;12.99;42.76;100324.50;5010934;28;20112;-75
2023/03/30 00:23:48;;;;;;;3.17;1.98;;;;;;;12.98;43.40;100322.78;5015582;28;20042;-76
2023/03/30 00:26:16;;;;;;;4.15;2.13;;;;;;;12.97;43.21;100332.91;5004862;28;20108;-76
2023/03/30 00:28:44;;;;;;;3.85;1.80;;;;;;;12.95;42.87;100320.38;5010706;28;20125;-74
2023/03/30 00:31:12;;;;;;;3.53;2.00;;;;;;;12.94;43.24;100325.03;5005119;28;20046;-74
2023/03/30 00:33:42;;;;;;;4.70;2.08;;;;;;;12.94;43.25;100340.63;4994835;28;20050;-74
2023/03/30 00:36:16;;;;;;;4.40;2.30;;;;;;;12.94;42.94;100344.25;5004745;28;20053;-74
2023/03/30 00:38:45;;;;;;;4.82;2.10;;;;;;;12.91;43.16;100333.56;5017368;28;20049;-74
2023/03/30 00:41:13;;;;;;;4.22;2.00;;;;;;;12.92;42.85;100345.41;5010417;28;20050;-74
2023/03/30 00:43:59;;;;;;;3.72;1.95;;;;;;;12.92;42.88;100345.41;5006971;28;20049;-75
2023/03/30 00:46:28;;;;;;;4.70;1.92;;;;;;;12.90;43.17;100337.34;5001163;28;20088;-74
2023/03/30 00:48:58;;;;;;;3.30;2.00;;;;;;;12.91;42.83;100335.47;4998835;28;20505;-74
2023/03/30 00:51:28;;;;;;;3.92;1.90;;;;;;;12.93;42.51;100333.41;5028550;28;20075;-74
2023/03/30 00:54:01;;;;;;;4.78;2.17;;;;;;;12.92;42.80;100305.09;5017620;28;20477;-74
2023/03/30 00:56:30;;;;;;;3.65;2.20;;;;;;;12.92;42.91;100299.59;5034024;28;20428;-74
2023/03/30 00:59:00;;;;;;;5.28;2.10;;;;;;;12.94;43.01;100297.56;5013269;28;20046;-74
2023/03/30 01:01:29;;;;;;;4.07;1.88;;;;;;;12.93;42.82;100287.59;5020422;28;20056;-74
2023/03/30 01:04:00;;;;;;;3.90;2.00;;;;;;;12.95;42.77;100291.03;5021096;28;20132;-74
2023/03/30 01:06:33;;;;;;;4.20;2.00;;;;;;;12.94;42.71;100277.47;5018082;28;20463;-74
2023/03/30 01:09:02;;;;;;;3.53;1.90;;;;;;;12.93;42.64;100281.22;5022503;28;20512;-74
2023/03/30 01:11:30;;;;;;;3.88;1.77;;;;;;;12.96;42.76;100278.13;5009154;28;20057;-74
2023/03/30 01:14:03;;;;;;;3.63;1.70;;;;;;;12.99;42.09;100275.06;4998570;28;20046;-74
2023/03/30 01:16:40;;;;;;;4.25;1.90;;;;;;;12.97;42.71;100277.97;5033463;28;20104;-75
2023/03/30 01:19:25;;;;;;;6.10;1.83;;;;;;;13.01;42.44;100295.88;5003191;28;20042;-75
2023/03/30 01:22:33;;;;;;;3.72;1.67;;;;;;;13.01;41.86;100295.88;5004156;28;20115;-74
2023/03/30 01:25:25;;;;;;;3.58;1.75;;;;;;;13.01;41.93;100290.38;5003453;28;20041;-74
2023/03/30 01:28:09;;;;;;;4.72;1.90;;;;;;;13.04;42.15;100290.03;5038845;28;20144;-74
2023/03/30 01:31:13;;;;;;;2.55;1.50;;;;;;;13.03;42.24;100295.72;5010489;28;20060;-75
2023/03/30 01:33:59;;;;;;;3.92;1.60;;;;;;;13.06;42.05;100298.09;5012694;28;20140;-74
2023/03/30 01:37:09;;;;;;;2.92;1.73;;;;;;;13.02;41.72;100300.34;5016904;28;20045;-75
2023/03/30 01:39:46;;;;;;;3.65;1.40;;;;;;;13.07;41.51;100308.94;5029215;28;20131;-74
2023/03/30 01:42:21;;;;;;;4.55;1.60;;;;;;;13.10;41.81;100302.28;5013312;28;20309;-75
2023/03/30 01:44:56;;;;;;;3.17;1.45;;;;;;;13.10;41.72;100308.63;5002800;28;20053;-74
2023/03/30 01:47:30;;;;;;;3.35;1.60;;;;;;;13.11;41.36;100307.59;4988821;28;20285;-75
2023/03/30 01:50:03;;;;;;;2.80;1.40;;;;;;;13.14;41.80;100306.41;4991367;28;20421;-74
2023/03/30 01:52:39;;;;;;;2.72;1.42;;;;;;;13.15;41.78;100292.50;4993606;28;20049;-74
2023/03/30 01:55:14;;;;;;;3.97;1.30;;;;;;;13.17;41.58;100298.69;5018475;28;20061;-74
2023/03/30 01:57:48;;;;;;;4.03;1.58;;;;;;;13.19;41.39;100299.41;4998705;28;20140;-75
2023/03/30 02:00:20;;;;;;;2.63;1.45;;;;;;;13.19;41.85;100295.78;4990146;28;20070;-74
2023/03/30 02:02:53;;;;;;;3.35;1.67;;;;;;;13.20;41.33;100295.59;5003947;28;20038;-75
2023/03/30 02:05:23;;;;;;;3.65;1.60;;;;;;;13.22;41.24;100299.03;4994985;28;20050;-74
2023/03/30 02:07:56;;;;;;;2.88;1.55;;;;;;;13.22;41.56;100292.69;4997730;28;20116;-75
2023/03/30 02:10:29;;;;;;;3.35;1.45;;;;;;;13.25;41.25;100285.00;4993292;28;20053;-75
2023/03/30 02:12:59;;;;;;;4.10;1.70;;;;;;;13.27;41.43;100278.47;4998821;28;20084;-75
2023/03/30 02:15:33;;;;;;;3.88;1.58;;;;;;;13.28;41.15;100281.06;5012552;28;20675;-75
2023/03/30 02:18:03;;;;;;;5.50;1.80;;;;;;;13.28;41.09;100283.81;5013917;28;20136;-74
2023/03/30 02:20:33;;;;;;;4.90;1.70;;;;;;;13.31;41.14;100277.09;4995585;28;20226;-75
2023/03/30 02:23:04;;;;;;;3.35;1.40;;;;;;;13.33;41.27;100261.31;5001296;28;20081;-75
2023/03/30 02:25:37;;;;;;;3.20;1.60;;;;;;;13.35;41.06;100262.00;5003230;28;20058;-74
2023/03/30 02:28:06;;;;;;;4.28;1.60;;;;;;;13.33;41.43;100256.66;5010249;28;20612;-74
2023/03/30 02:30:35;;;;;;;3.42;1.60;;;;;;;13.36;41.30;100239.84;4995681;28;20065;-74
2023/03/30 02:33:06;;;;;;;3.85;1.60;;;;;;;13.39;41.37;100234.00;5000657;28;20129;-75
2023/03/30 02:35:51;;;;;;;3.67;1.75;;;;;;;13.42;40.81;100230.06;4997431;28;20050;-74
2023/03/30 02:38:48;;;;;;;4.43;1.60;;;;;;;13.43;40.61;100226.31;4999981;28;20441;-75
2023/03/30 02:41:33;;;;;;;3.58;1.45;;;;;;;13.44;40.82;100220.63;4999905;28;20059;-74
2023/03/30 02:44:08;;;;;;;2.90;1.45;;;;;;;13.46;40.79;100226.81;5017591;28;20053;-75
2023/03/30 02:46:52;;;;;;;3.20;1.60;;;;;;;13.48;40.25;100232.13;5016779;28;20072;-75
2023/03/30 02:49:31;;;;;;;3.92;1.30;;;;;;;13.49;40.28;100231.13;4998505;28;20542;-75
2023/03/30 02:52:08;;;;;;;3.83;1.50;;;;;;;13.51;40.44;100235.44;5010493;28;20399;-74
2023/03/30 02:54:50;;;;;;;3.80;1.40;;;;;;;13.52;40.80;100225.28;5015880;28;20105;-74
2023/03/30 02:57:25;;;;;;;;;;;;;;;13.24;40.89;100225.56;5003147;28;20176;-74
2023/03/30 03:00:06;;;;;;;2.80;1.13;;;;;;;13.50;40.52;100224.59;5016767;28;19926;-74
2023/03/30 03:02:37;;;;;;;2.80;1.40;;;;;;;13.55;40.70;100213.94;5004532;28;20054;-74
2023/03/30 03:05:18;;;;;;;2.60;1.30;;;;;;;13.54;40.39;100201.22;5019432;28;20053;-75
2023/03/30 03:08:04;;;;;;;2.92;1.60;;;;;;;13.53;40.49;100205.84;5016900;28;20544;-74
2023/03/30 03:10:35;;;;;;;2.90;1.23;;;;;;;13.55;40.37;100198.31;5024915;22;20056;-70
2023/03/30 03:13:04;;;;;;;3.90;1.38;;;;;;;13.58;40.40;100208.16;4983147;28;20521;-70
2023/03/30 03:15:32;;;;;;;4.45;1.30;;;;;;;13.58;40.80;100209.00;4984960;28;20449;-69
2023/03/30 03:18:06;;;;;;;;;;;;;;;13.32;40.64;100218.34;4987989;28;20201;-70
2023/03/30 03:20:34;;;;;;;2.47;1.38;;;;;;;13.54;40.83;100218.56;4983853;28;19922;-68
2023/03/30 03:23:02;;;;;;;3.05;1.38;;;;;;;13.60;40.34;100214.34;4985996;28;20513;-70
2023/03/30 03:25:38;;;;;;;3.25;1.70;;;;;;;13.60;40.36;100215.19;4980639;28;20058;-70
2023/03/30 03:28:09;;;;;;;2.90;1.30;;;;;;;13.62;40.68;100210.38;4982846;28;20042;-70
2023/03/30 03:30:42;;;;;;;3.38;1.35;;;;;;;13.62;40.44;100209.50;4984057;28;20524;-69
2023/03/30 03:33:19;;;;;;;4.75;1.40;;;;;;;13.62;40.25;100204.88;4983294;28;20058;-70
2023/03/30 03:35:59;;;;;;;4.50;1.98;;;;;;;13.61;40.27;100214.16;4985214;28;20129;-70
2023/03/30 03:38:29;;;;;;;5.47;1.80;;;;;;;13.65;40.20;100213.81;4984907;28;20421;-69
2023/03/30 03:40:59;;;;;;;4.88;1.70;;;;;;;13.65;40.64;100209.19;4984273;28;20089;-69
2023/03/30 03:43:30;;;;;;;4.25;1.70;;;;;;;13.67;40.59;100198.88;4985278;28;20097;-69
2023/03/30 03:45:58;;;;;;;3.70;1.30;;;;;;;13.66;40.56;100188.03;4982587;28;20052;-70
2023/03/30 03:48:26;;;;;;;4.32;1.60;;;;;;;13.66;40.65;100191.66;4983147;28;20042;-71
2023/03/30 03:50:56;;;;;;;4.40;1.80;;;;;;;13.67;40.11;100190.63;4983162;28;20061;-70
2023/03/30 03:53:28;;;;;;;4.10;2.10;;;;;;;13.68;40.43;100183.25;4986048;28;20035;-70
2023/03/30 03:56:00;;;;;;;4.30;1.77;;;;;;;13.65;40.46;100184.44;4988105;28;20042;-70
2023/03/30 03:58:30;;;;;;;3.38;1.80;;;;;;;13.67;40.43;100187.88;4987313;28;20073;-69
2023/03/30 04:00:59;;;;;;;3.38;1.67;;;;;;;13.66;40.43;100183.41;4988029;28;20178;-68
2023/03/30 04:03:27;;;;;;;3.92;1.73;;;;;;;13.65;40.08;100180.81;4984731;28;20055;-70
2023/03/30 04:05:58;;;;;;;5.10;2.05;;;;;;;13.66;40.11;100175.16;4984999;28;20042;-69
2023/03/30 04:08:27;;;;;;;3.58;1.52;;;;;;;13.64;40.25;100160.72;4985241;28;20046;-69
2023/03/30 04:11:04;;;;;;;4.72;1.88;;;;;;;13.66;40.49;100172.41;4983175;28;20042;-70
2023/03/30 04:13:41;;;;;;;4.90;1.63;;;;;;;13.65;40.23;100167.94;4984425;28;20044;-70
2023/03/30 04:16:38;;;;;;;3.95;1.75;;;;;;;13.62;40.50;100165.50;4933280;28;20070;-68
2023/03/30 04:19:37;;;;;;;3.17;1.48;;;;;;;13.61;40.52;100153.66;4985554;28;20414;-70
2023/03/30 04:22:32;;;;;;;4.25;1.70;;;;;;;13.60;40.27;100151.97;4961886;28;20466;-71
2023/03/30 04:25:20;;;;;;;4.63;1.70;;;;;;;13.62;40.67;100151.75;4984628;28;20417;-71
2023/03/30 04:28:10;;;;;;;3.72;1.50;;;;;;;13.62;40.61;100146.28;4984690;28;20053;-71
2023/03/30 04:31:11;;;;;;;4.28;1.30;;;;;;;13.63;40.24;100157.09;4999416;28;20058;-71
2023/03/30 04:34:01;;;;;;;3.55;1.52;;;;;;;13.61;40.17;100153.66;4985783;28;20184;-72
2023/03/30 04:37:08;;;;;;;4.38;1.50;;;;;;;13.62;40.25;100162.75;4949079;28;20141;-71
2023/03/30 04:40:11;;;;;;;3.20;1.33;;;;;;;13.63;40.77;100162.59;4969868;28;20391;-71
2023/03/30 04:43:04;;;;;;;2.90;1.17;;;;;;;13.63;40.38;100161.75;4984641;28;20054;-71
2023/03/30 04:45:51;;;;;;;3.20;1.35;;;;;;;13.65;40.52;100167.06;4981198;28;20069;-71
2023/03/30 04:48:32;;;;;;;3.70;1.40;;;;;;;13.68;40.10;100167.59;4982565;28;20037;-71
2023/03/30 04:51:12;;;;;;;3.15;1.50;;;;;;;13.68;40.36;100167.59;4981461;28;20490;-70
2023/03/30 04:53:58;;;;;;;4.00;1.40;;;;;;;13.69;40.54;100173.97;4981191;28;20054;-70
2023/03/30 04:56:26;;;;;;;3.25;1.48;;;;;;;13.71;40.09;100178.25;4977453;28;20569;-70
2023/03/30 04:59:18;;;;;;;3.60;1.40;;;;;;;13.71;40.43;100182.88;4980929;28;20048;-70
2023/03/30 05:02:06;;;;;;;5.40;1.98;;;;;;;13.73;40.22;100172.56;4973558;28;20371;-70
2023/03/30 05:04:54;;;;;;;2.70;1.33;;;;;;;13.76;40.08;100170.34;4979476;28;20042;-70
2023/03/30 05:07:42;;;;;;;3.30;1.60;;;;;;;13.75;40.57;100168.63;4972125;28;20105;-70
2023/03/30 05:10:33;;;;;;;5.43;1.92;;;;;;;13.76;40.62;100167.59;4975681;28;20478;-70
2023/03/30 05:13:24;;;;;;;2.95;1.23;;;;;;;13.79;40.39;100175.50;4975531;28;20058;-70
2023/03/30 05:16:21;;;;;;;3.92;1.40;;;;;;;13.79;40.05;100175.50;4980386;28;20513;-70
2023/03/30 05:19:25;;;;;;;3.13;1.40;;;;;;;13.80;40.19;100174.47;4983629;28;20043;-71
2023/03/30 05:22:17;;;;;;;3.17;1.50;;;;;;;13.84;40.17;100178.59;4959426;28;20239;-71
2023/03/30 05:24:57;;;;;;;3.47;1.42;;;;;;;13.84;40.22;100181.34;4981154;28;20146;-69
2023/03/30 05:27:41;;;;;;;3.67;1.60;;;;;;;13.85;40.24;100180.34;4999873;28;20575;-70
2023/03/30 05:30:18;;;;;;;3.13;1.25;;;;;;;13.88;40.33;100179.97;5011514;28;20058;-70
2023/03/30 05:33:08;;;;;;;3.45;1.33;;;;;;;13.89;40.27;100191.81;5002683;28;20054;-70
2023/03/30 05:35:55;;;;;;;2.88;1.20;;;;;;;13.90;40.26;100188.91;5000883;28;20052;-70
2023/03/30 05:38:43;;;;;;;3.42;1.15;;;;;;;13.93;40.26;100184.97;4994166;28;20183;-71
2023/03/30 05:41:31;;;;;;;3.22;1.42;;;;;;;13.93;40.01;100190.47;4998527;28;20302;-71
2023/03/30 05:44:15;;;;;;;3.30;1.30;;;;;;;13.94;40.11;100175.69;5000170;28;20069;-71
2023/03/30 05:47:01;;;;;;;3.13;1.42;;;;;;;13.95;40.24;100186.50;5016014;28;20077;-72
2023/03/30 05:49:45;;;;;;;3.72;1.42;;;;;;;13.98;39.97;100193.56;5000686;28;20505;-70
2023/03/30 05:52:23;;;;;;;3.90;1.40;;;;;;;13.98;40.45;100197.16;5001024;28;20050;-71
2023/03/30 05:55:04;;;;;;;2.80;1.38;;;;;;;14.01;40.16;100198.72;4999420;28;20536;-72
2023/03/30 05:57:49;;;;;;;3.90;1.38;;;;;;;13.99;40.26;100204.38;5002631;28;20137;-71
2023/03/30 06:00:47;;;;;;;3.38;1.52;;;;;;;14.02;40.19;100197.69;4972155;28;20043;-71
2023/03/30 06:03:24;;;;;;;2.10;1.08;;;;;;;14.04;40.13;100203.00;4996350;28;20043;-72
2023/03/30 06:05:53;;;;;;;3.67;1.70;;;;;;;14.05;40.15;100212.97;4996356;28;20042;-72
2023/03/30 06:08:21;;;;;;;3.83;1.30;;;;;;;14.06;39.93;100211.94;5006376;28;20034;-73
2023/03/30 06:10:56;;;;;;;3.40;1.20;;;;;;;14.09;39.90;100209.72;4999835;28;20400;-71
2023/03/30 06:13:27;;;;;;;3.47;1.10;;;;;;;14.08;40.31;100204.38;4999722;28;20133;-72
2023/03/30 06:15:55;;;;;;;3.72;1.38;;;;;;;14.09;40.26;100203.34;5003174;28;20108;-72
2023/03/30 06:18:26;;;;;;;2.85;1.38;;;;;;;14.10;40.16;100203.19;5002013;28;20104;-72
2023/03/30 06:21:14;;;;;;;2.30;1.20;;;;;;;14.09;40.40;100195.09;5006366;28;20343;-71
2023/03/30 06:24:06;;;;;;;2.85;1.33;;;;;;;14.10;40.06;100194.06;4987477;28;20590;-71
2023/03/30 06:26:39;;;;;;;2.80;1.40;;;;;;;14.12;40.04;100195.59;5000321;28;20050;-71
2023/03/30 06:29:08;;;;;;;2.58;1.52;;;;;;;14.12;39.71;100197.47;5009993;28;20104;-71
2023/03/30 06:31:38;;;;;;;4.30;1.60;;;;;;;14.12;39.83;100203.00;4992712;28;20573;-71
2023/03/30 06:34:44;;;;;;;4.05;1.50;;;;;;;14.10;39.95;100203.19;4935649;29;20052;-72
2023/03/30 06:37:14;;;;;;;3.40;1.50;;;;;;;14.11;39.84;100198.50;4983752;28;20050;-72
2023/03/30 06:39:42;;;;;;;3.17;1.42;;;;;;;14.12;40.01;100208.50;5013586;28;20053;-70
2023/03/30 06:42:11;;;;;;;3.25;1.60;;;;;;;14.14;39.75;100211.94;4998680;28;20060;-72
2023/03/30 06:44:57;;;;;;;3.40;1.70;;;;;;;14.12;40.09;100216.75;4985233;28;20592;-71
2023/03/30 06:47:25;;;;;;;4.80;2.30;;;;;;;14.14;39.76;100225.69;5000358;28;20054;-72
2023/03/30 06:49:55;;;;;;;3.75;1.30;;;;;;;14.14;39.80;100220.19;4984852;28;20449;-72
2023/03/30 06:52:41;;;;;;;1.90;1.20;;;;;;;14.14;39.78;100220.19;5000034;28;20562;-72
2023/03/30 06:55:09;;;;;;;3.20;1.52;;;;;;;14.15;39.68;100225.53;4999798;28;20636;-72
2023/03/30 06:57:38;;;;;;;2.58;1.27;;;;;;;14.16;39.71;100229.16;5005535;28;20069;-72
2023/03/30 07:00:12;;;;;;;3.50;1.45;;;;;;;14.18;39.73;100227.09;5006103;28;20060;-72
2023/03/30 07:02:40;;;;;;;2.63;1.42;;;;;;;14.16;39.88;100224.50;4993829;28;20050;-72
2023/03/30 07:05:17;;;;;;;2.20;1.20;;;;;;;14.17;39.96;100228.13;4999117;28;20038;-71
2023/03/30 07:07:56;;;;;;;2.90;1.38;;;;;;;14.17;40.01;100228.13;5002818;28;20038;-72
2023/03/30 07:10:25;;;;;;;3.72;1.30;;;;;;;14.18;39.46;100225.19;4998272;28;20088;-71
2023/03/30 07:12:55;;;;;;;2.47;1.10;;;;;;;14.21;39.45;100229.47;4991790;28;20563;-70
2023/03/30 07:15:24;;;;;;;3.45;1.20;;;;;;;14.19;39.90;100226.88;4994113;28;20061;-71
2023/03/30 07:17:52;;;;;;;4.95;1.42;;;;;;;14.21;39.87;100232.22;5012586;28;20066;-71
2023/03/30 07:20:20;;;;;;;3.50;1.13;;;;;;;14.21;39.45;100241.34;5002434;28;20058;-71
2023/03/30 07:23:10;;;;;;;3.08;1.13;;;;;;;14.21;39.94;100238.59;5004598;28;20050;-71
2023/03/30 07:25:38;;;;;;;2.97;1.20;;;;;;;14.22;39.57;100239.44;5000845;28;20049;-71
2023/03/30 07:28:15;;;;;;;2.55;1.15;;;;;;;14.25;39.69;100244.63;5003059;28;20084;-72
2023/03/30 07:30:44;;;;;;;2.08;1.05;;;;;;;14.23;39.84;100239.28;4994076;28;22238;-71
2023/03/30 07:33:13;;;;;;;2.80;1.30;;;;;;;14.25;39.88;100239.13;5002522;28;20520;-71
2023/03/30 07:35:44;;;;;;;2.25;1.30;;;;;;;14.25;39.51;100247.38;4991417;28;20077;-71
2023/03/30 07:38:15;;;;;;;3.38;1.30;;;;;;;14.23;39.41;100243.94;4988054;28;20041;-72
2023/03/30 07:40:49;;;;;;;2.97;1.30;;;;;;;14.25;39.75;100239.97;4982572;28;20541;-73
2023/03/30 07:43:20;;;;;;;4.35;1.60;;;;;;;14.28;39.56;100247.00;5005005;28;20050;-71
2023/03/30 07:45:49;;;;;;;3.08;1.40;;;;;;;14.26;39.84;100240.84;4980040;28;20121;-72
2023/03/30 07:48:23;;;;;;;2.15;1.25;;;;;;;14.26;39.97;100249.97;4992929;28;20046;-71
2023/03/30 07:50:59;;;;;;;3.95;1.60;;;;;;;14.29;39.50;100260.59;4981805;28;20050;-71
2023/03/30 07:53:32;;;;;;;3.47;1.33;;;;;;;14.27;40.08;100278.34;4982745;28;20066;-72
2023/03/30 07:56:02;;;;;;;2.90;1.40;;;;;;;14.28;40.42;100299.31;4977303;28;20713;-72
2023/03/30 07:58:41;;;;;;;2.83;0.93;;;;;;;14.29;40.31;100301.03;4985192;28;20050;-71
2023/03/30 08:01:12;;;;;;;2.92;1.05;;;;;;;14.26;40.54;100310.50;4984127;28;20048;-69
2023/03/30 08:04:06;;;;;;;1.92;1.02;;;;;;;14.21;40.58;100307.41;4982363;28;20061;-69
2023/03/30 08:06:36;;;;;;;2.42;1.00;;;;;;;14.18;40.76;100309.66;4981223;28;20168;-68
2023/03/30 08:09:04;;;;;;;4.05;1.10;;;;;;;14.14;40.91;100308.25;4984166;28;20113;-68
2023/03/30 08:11:34;;;;;;;3.00;1.10;;;;;;;14.08;40.65;100300.69;4982526;28;20160;-69
2023/03/30 08:14:04;;;;;;;2.80;0.98;;;;;;;14.02;41.41;100302.25;4979640;28;20061;-69
2023/03/30 08:16:32;;;;;;;5.82;1.27;;;;;;;13.94;40.89;100307.72;4981925;28;20533;-69
2023/03/30 08:19:00;;;;;;;4.55;1.20;;;;;;;13.88;41.01;100308.38;4980085;28;20226;-69
2023/03/30 08:21:28;;;;;;;3.13;1.08;;;;;;;13.80;41.76;100311.13;4979515;28;20050;-70
2023/03/30 08:23:58;;;;;;;5.30;1.45;;;;;;;13.74;41.46;100323.66;4980310;28;20129;-69
2023/03/30 08:26:27;;;;;;;5.45;1.20;;;;;;;13.68;41.97;100324.34;4988674;28;20537;-69
2023/03/30 08:28:55;;;;;;;2.40;1.10;;;;;;;13.61;41.96;100324.13;5002818;28;20042;-69
2023/03/30 08:31:24;;;;;;;5.85;1.65;;;;;;;13.58;42.45;100326.38;4999134;28;20050;-69
2023/03/30 08:33:52;;;;;;;3.42;1.13;;;;;;;13.51;42.34;100314.28;4997629;28;20034;-68
2023/03/30 08:36:21;;;;;;;5.40;1.33;;;;;;;13.46;42.28;100311.16;4992844;28;20063;-69
2023/03/30 08:38:49;;;;;;;4.72;1.23;;;;;;;13.43;42.43;100320.63;4981212;28;20138;-69
2023/03/30 08:41:38;;;;;;;3.78;1.35;;;;;;;13.42;43.93;100320.78;4995831;28;20424;-69
2023/03/30 08:44:13;;;;;;;3.90;1.15;;;;;;;13.37;43.39;100315.75;5001878;28;20350;-69
2023/03/30 08:46:44;;;;;;;4.43;1.30;;;;;;;13.36;43.13;100316.81;4998337;28;20103;-69
2023/03/30 08:49:16;;;;;;;2.65;1.40;;;;;;;13.36;43.35;100313.22;5000735;28;20041;-71
2023/03/30 08:51:45;;;;;;;4.00;1.40;;;;;;;13.33;43.52;100310.78;5006029;28;20073;-71
2023/03/30 08:54:16;;;;;;;4.20;1.13;;;;;;;13.37;43.65;100318.50;5007834;28;20037;-69
2023/03/30 08:56:54;;;;;;;3.63;1.48;;;;;;;13.42;44.40;100313.41;4992670;28;20173;-70
2023/03/30 08:59:29;;;;;;;3.85;1.73;;;;;;;13.47;44.92;100313.75;4997783;28;20077;-70
2023/03/30 09:02:04;;;;;;;4.90;1.70;;;;;;;13.54;45.07;100309.31;5000446;28;20041;-70
2023/03/30 09:04:45;;;;;;;3.90;1.30;;;;;;;13.66;45.30;100317.28;5008061;28;20144;-70
2023/03/30 09:07:20;;;;;;;5.20;1.60;;;;;;;13.76;44.16;100316.13;4999092;28;20108;-70
2023/03/30 09:09:50;;;;;;;5.65;1.98;;;;;;;13.85;44.53;100314.25;4999857;28;20065;-70
2023/03/30 09:12:27;;;;;;;5.35;1.77;;;;;;;13.94;44.11;100319.56;4985921;28;20046;-71
2023/03/30 09:15:00;;;;;;;3.47;1.20;;;;;;;14.02;43.54;100325.09;4980318;28;20489;-69
2023/03/30 09:17:32;;;;;;;4.43;1.50;;;;;;;14.09;43.84;100333.53;4982686;28;20070;-69
2023/03/30 09:20:08;;;;;;;4.28;1.38;;;;;;;14.12;43.51;100360.69;5011469;23;20342;-76
2023/03/30 09:22:39;;;;;;;3.42;1.25;;;;;;;14.19;43.29;100371.91;5034453;28;20053;-78
2023/03/30 09:25:17;;;;;;;3.17;1.48;;;;;;;14.23;43.06;100381.53;5036042;28;20049;-77
2023/03/30 09:27:54;;;;;;;2.58;0.95;;;;;;;14.24;42.48;100380.50;5066712;28;20053;-78
2023/03/30 09:30:26;;;;;;;2.42;0.95;;;;;;;14.20;42.74;100377.22;5048680;28;20072;-78
2023/03/30 09:33:04;;;;;;;2.58;1.00;;;;;;;14.18;42.23;100379.31;5053124;28;20044;-78
2023/03/30 09:35:41;;;;;;;2.00;0.70;;;;;;;14.16;42.09;100372.25;5051491;28;20060;-78
2023/03/30 09:38:11;;;;;;;3.97;1.00;;;;;;;14.09;42.13;100369.31;5060530;28;20059;-79
2023/03/30 09:40:55;;;;;;;1.52;0.88;;;;;;;14.05;41.55;100376.16;5053204;28;20458;-78
2023/03/30 09:43:32;;;;;;;1.65;0.70;;;;;;;13.99;41.57;100376.84;5056639;28;20067;-78
2023/03/30 09:46:05;;;;;;;2.47;0.93;;;;;;;13.92;41.95;100384.06;5055744;28;20045;-78
2023/03/30 09:48:43;;;;;;;2.78;1.08;;;;;;;13.89;41.92;100390.75;5053046;28;20577;-79
2023/03/30 09:51:23;;;;;;;4.28;1.23;;;;;;;13.83;41.74;100390.56;5055376;28;20051;-78
2023/03/30 09:53:53;;;;;;;3.15;0.98;;;;;;;13.76;41.81;100390.38;5053057;28;20120;-78
2023/03/30 09:56:27;;;;;;;5.43;1.20;;;;;;;13.73;41.66;100409.94;5052770;28;20063;-78
2023/03/30 09:58:56;;;;;;;4.03;0.90;;;;;;;13.65;41.43;100412.66;5041910;28;20075;-78
2023/03/30 10:01:36;;;;;;;4.55;1.40;;;;;;;13.62;41.87;100411.09;5050238;28;20044;-78
2023/03/30 10:04:12;;;;;;;5.60;1.40;;;;;;;13.57;41.86;100416.25;5067726;28;20126;-78
2023/03/30 10:06:46;;;;;;;4.13;1.80;;;;;;;13.51;42.31;100416.88;5048482;28;20065;-78
2023/03/30 10:09:15;;;;;;;5.20;1.60;;;;;;;13.43;42.31;100422.31;5063155;28;20412;-78
2023/03/30 10:11:45;;;;;;;4.15;1.40;;;;;;;13.41;42.25;100421.63;5035442;28;20056;-78
2023/03/30 10:14:28;;;;;;;3.22;1.13;;;;;;;13.37;42.73;100411.09;5049832;28;20048;-78
2023/03/30 10:16:56;;;;;;;;;;;;;;;13.03;42.96;100406.47;5053541;28;20094;-79
2023/03/30 10:19:25;;;;;;;3.05;1.00;;;;;;;13.24;42.87;100409.66;5061100;28;19920;-79
2023/03/30 10:21:55;;;;;;;3.63;1.20;;;;;;;13.25;42.40;100402.28;5045853;28;20131;-80
2023/03/30 10:24:26;;;;;;;3.72;1.50;;;;;;;13.23;42.73;100398.84;5039805;28;20034;-78
2023/03/30 10:26:57;;;;;;;5.25;1.20;;;;;;;13.21;43.00;100395.38;5029730;28;20413;-78
2023/03/30 10:29:28;;;;;;;3.30;1.02;;;;;;;13.19;42.70;100402.94;5028986;28;20386;-78
2023/03/30 10:31:59;;;;;;;3.40;1.30;;;;;;;13.17;43.51;100408.59;5035010;28;20591;-78
2023/03/30 10:34:37;;;;;;;2.90;1.20;;;;;;;13.18;43.53;100404.84;5039490;28;20493;-78
2023/03/30 10:37:11;;;;;;;5.18;1.25;;;;;;;13.15;43.17;100410.63;5028785;28;20132;-78
2023/03/30 10:39:42;;;;;;;3.13;1.40;;;;;;;13.15;43.52;100423.50;5029376;28;20045;-78
2023/03/30 10:42:15;;;;;;;5.90;1.17;;;;;;;13.17;43.93;100418.72;5031247;28;20050;-78
2023/03/30 10:44:47;;;;;;;2.85;1.10;;;;;;;13.17;43.56;100425.09;5028291;28;20072;-78
2023/03/30 10:47:44;;;;;;;2.90;1.10;;;;;;;13.19;43.35;100428.53;5028636;28;20136;-77
2023/03/30 10:50:23;;;;;;;4.05;1.10;;;;;;;13.23;43.76;100418.06;5018068;28;20066;-77
2023/03/30 10:53:05;;;;;;;2.53;0.98;;;;;;;13.28;43.75;100423.09;5052568;28;20419;-78
2023/03/30 10:55:42;;;;;;;3.87;1.00;;;;;;;13.30;43.31;100413.66;5045424;28;20053;-78
2023/03/30 10:58:21;;;;;;;2.08;0.80;;;;;;;13.36;43.86;100412.16;5029893;28;20057;-77
2023/03/30 11:01:01;;;;;;;2.50;0.80;;;;;;;13.43;43.47;100400.34;5037940;28;20044;-77
2023/03/30 11:03:31;;;;;;;4.90;1.17;;;;;;;13.47;43.48;100406.34;5045603;28;20148;-78
2023/03/30 11:06:07;;;;;;;2.00;0.80;;;;;;;13.57;43.41;100412.63;5052058;28;20052;-78
2023/03/30 11:08:39;;;;;;;2.30;0.80;;;;;;;13.65;43.67;100409.03;5054990;28;20056;-78
2023/03/30 11:11:17;;;;;;;3.60;1.38;;;;;;;13.75;43.82;100407.91;5048104;28;20061;-78
2023/03/30 11:13:50;;;;;;;2.42;0.90;;;;;;;13.85;43.63;100419.63;5033510;28;20124;-78
2023/03/30 11:16:21;;;;;;;1.58;1.00;;;;;;;13.96;43.82;100412.94;5038000;28;20517;-77
2023/03/30 11:18:54;;;;;;;1.65;0.73;;;;;;;14.07;42.88;100426.41;5040031;28;20064;-77
2023/03/30 11:21:30;;;;;;;2.35;0.93;;;;;;;14.19;42.71;100427.78;5052541;28;20060;-78
2023/03/30 11:24:04;;;;;;;4.30;1.10;;;;;;;14.28;42.75;100424.03;5027686;28;20477;-78
2023/03/30 11:26:38;;;;;;;2.72;1.08;;;;;;;14.38;42.86;100413.72;5036369;28;20069;-78
2023/03/30 11:29:28;;;;;;;3.10;0.80;;;;;;;14.50;42.49;100424.47;5047696;28;20056;-78
2023/03/30 11:32:07;;;;;;;2.33;1.05;;;;;;;14.60;42.65;100431.50;5045730;28;20456;-77
2023/03/30 11:34:46;;;;;;;2.55;1.10;;;;;;;14.74;41.98;100429.97;5026120;28;20470;-78
2023/03/30 11:37:26;;;;;;;2.83;1.20;;;;;;;14.86;41.78;100419.47;5052145;28;20053;-78
2023/03/30 11:39:59;;;;;;;2.20;1.08;;;;;;;14.92;41.40;100407.78;5058609;28;20056;-78
2023/03/30 11:42:31;;;;;;;2.92;1.00;;;;;;;15.01;41.46;100407.56;5051063;28;20044;-78
2023/03/30 11:45:00;;;;;;;3.25;1.10;;;;;;;15.06;41.50;100407.06;5054486;28;20049;-78
2023/03/30 11:47:40;;;;;;;4.38;1.23;;;;;;;15.17;40.66;100389.31;5035472;28;20373;-78
2023/03/30 11:50:20;;;;;;;4.15;1.23;;;;;;;15.22;40.69;100396.00;5034909;28;20041;-77
2023/03/30 11:52:59;;;;;;;4.38;1.20;;;;;;;15.29;40.21;100405.28;5046342;28;20581;-76
2023/03/30 11:55:50;;;;;;;3.45;1.17;;;;;;;15.34;40.42;100413.91;5047213;28;20061;-77
2023/03/30 11:58:31;;;;;;;2.88;1.10;;;;;;;15.43;40.22;100407.34;5026235;28;20068;-76
2023/03/30 12:01:30;;;;;;;4.72;1.33;;;;;;;15.48;40.04;100409.56;5026926;28;20489;-77
2023/03/30 12:04:06;;;;;;;3.72;1.05;;;;;;;15.53;40.02;100404.38;5022132;28;20049;-76
2023/03/30 12:06:39;;;;;;;3.35;0.95;;;;;;;15.55;39.85;100420.75;5027906;28;20065;-77
2023/03/30 12:09:20;;;;;;;;;;;;;;;15.27;40.89;100406.47;5026087;28;20081;-76